Time;durP1;ratioP1;P1;durP2;ratioP2;P2;SDS_P1;SDS_P2;PMS_P1;PMS_P2;Temp;Humidity;BMP_temperature;BMP_pressure;BME280_temperature;BME280_humidity;BME280_pressure;Samples;Min_cycle;Max_cycle;Signal;HPM_P1;HPM_P2
2022/08/01 00:02:03;;;;;;;5.67;1.70;;;;;;;20.72;57.37;99103.59;1725905;82;21002;-82
2022/08/01 00:04:30;;;;;;;6.50;2.00;;;;;;;20.68;57.50;99100.83;1726021;82;21052;-82
2022/08/01 00:06:56;;;;;;;3.60;1.80;;;;;;;20.64;57.75;99099.36;1729315;82;21156;-83
2022/08/01 00:09:22;;;;;;;4.15;1.57;;;;;;;20.59;57.77;99100.20;1725978;83;21016;-84
2022/08/01 00:11:49;;;;;;;2.60;1.67;;;;;;;20.55;57.89;99098.28;1725841;82;21079;-83
2022/08/01 00:14:18;;;;;;;2.02;1.80;;;;;;;20.53;57.94;99096.73;1726235;83;21316;-81
2022/08/01 00:16:44;;;;;;;2.75;1.77;;;;;;;20.49;58.24;99098.77;1713204;83;21043;-81
2022/08/01 00:19:12;;;;;;;6.20;1.87;;;;;;;20.44;58.42;99092.13;1699549;84;22294;-83
2022/08/01 00:21:38;;;;;;;6.00;1.65;;;;;;;20.38;58.68;99097.00;1699751;84;21097;-81
2022/08/01 00:24:05;;;;;;;5.58;1.85;;;;;;;20.34;58.80;99095.56;1699757;84;21046;-81
2022/08/01 00:26:32;;;;;;;14.63;1.90;;;;;;;20.29;58.84;99097.77;1699792;84;20998;-80
2022/08/01 00:28:58;;;;;;;5.53;1.80;;;;;;;20.27;59.03;99097.02;1699656;84;21534;-83
2022/08/01 00:31:25;;;;;;;2.92;1.50;;;;;;;20.25;59.12;99095.47;1699931;84;21101;-83
2022/08/01 00:33:51;;;;;;;5.85;1.72;;;;;;;20.22;59.26;99097.88;1699767;84;21069;-83
2022/08/01 00:36:18;;;;;;;7.87;1.70;;;;;;;20.20;59.23;99095.83;1699034;84;21126;-83
2022/08/01 00:38:44;;;;;;;5.55;1.62;;;;;;;20.17;59.44;99093.41;1699630;84;21094;-83
2022/08/01 00:41:10;;;;;;;8.88;1.72;;;;;;;20.16;59.52;99090.39;1699934;84;21509;-82
2022/08/01 00:43:37;;;;;;;4.00;1.87;;;;;;;20.15;59.64;99087.34;1699771;83;21529;-82
2022/08/01 00:46:04;;;;;;;2.25;1.72;;;;;;;20.13;59.68;99093.30;1699963;84;21067;-81
2022/08/01 00:48:31;;;;;;;3.95;2.10;;;;;;;20.10;59.61;99086.37;1699995;84;21145;-83
2022/08/01 00:50:57;;;;;;;3.12;1.90;;;;;;;20.07;59.63;99082.61;1699795;84;21495;-83
2022/08/01 00:53:25;;;;;;;5.97;1.65;;;;;;;20.06;59.57;99083.61;1700044;84;21081;-82
2022/08/01 00:55:51;;;;;;;4.53;1.85;;;;;;;20.05;59.48;99080.56;1699865;84;21811;-81
2022/08/01 00:58:18;;;;;;;5.37;1.80;;;;;;;20.04;59.60;99079.72;1692047;83;21084;-82
2022/08/01 01:00:45;;;;;;;6.53;1.70;;;;;;;20.03;59.56;99073.16;1715145;83;21124;-82
2022/08/01 01:03:11;;;;;;;3.70;1.70;;;;;;;20.02;59.65;99076.33;1715386;83;21131;-83
2022/08/01 01:05:47;;;;;;;6.67;1.62;;;;;;;20.01;59.63;99072.45;1715467;82;21224;-83
2022/08/01 01:08:26;;;;;;;3.60;2.00;;;;;;;19.98;59.66;99070.02;1713515;83;21163;-80
2022/08/01 01:11:12;;;;;;;4.58;1.72;;;;;;;19.95;59.78;99072.44;1715469;83;21101;-84
2022/08/01 01:13:48;;;;;;;6.37;1.80;;;;;;;19.93;59.84;99077.55;1715310;83;21219;-83
2022/08/01 01:16:15;;;;;;;3.00;2.00;;;;;;;19.90;59.88;99071.96;1719298;83;21050;-81
2022/08/01 01:18:57;;;;;;;6.00;1.75;;;;;;;19.87;59.91;99069.56;1715542;83;21065;-80
2022/08/01 01:21:35;;;;;;;3.27;1.50;;;;;;;19.86;59.99;99069.19;1715356;83;21687;-82
2022/08/01 01:24:13;;;;;;;5.15;1.62;;;;;;;19.84;60.10;99073.81;1715537;83;21082;-82
2022/08/01 01:27:23;;;;;;;8.23;1.77;;;;;;;19.84;60.10;99064.47;1715370;83;21050;-81
2022/08/01 01:29:53;;;;;;;5.53;1.75;;;;;;;19.83;60.16;99061.42;1715135;83;21140;-83
2022/08/01 01:32:41;;;;;;;2.70;1.72;;;;;;;19.82;60.44;99065.05;1715249;82;21944;-80
2022/08/01 01:35:19;;;;;;;5.90;1.57;;;;;;;19.81;60.41;99064.70;1715481;83;21111;-82
2022/08/01 01:37:45;;;;;;;3.55;1.90;;;;;;;19.79;60.52;99070.17;1715111;83;21631;-82
2022/08/01 01:40:12;;;;;;;5.55;1.92;;;;;;;19.77;60.47;99060.56;1715530;83;21618;-82
2022/08/01 01:42:39;;;;;;;10.28;1.98;;;;;;;19.77;60.71;99064.57;1715139;83;21108;-82
2022/08/01 01:45:06;;;;;;;7.10;1.98;;;;;;;19.75;60.71;99069.19;1715410;82;21093;-82
2022/08/01 01:47:33;;;;;;;2.75;1.65;;;;;;;19.73;60.92;99071.11;1715690;83;21113;-80
2022/08/01 01:49:59;;;;;;;7.80;2.02;;;;;;;19.72;61.04;99080.08;1715115;83;21026;-80
2022/08/01 01:52:26;;;;;;;9.73;1.87;;;;;;;19.69;61.13;99079.85;1724507;80;21487;-82
2022/08/01 01:54:52;;;;;;;4.45;2.12;;;;;;;19.68;61.29;99082.14;1762785;81;20993;-83
2022/08/01 01:57:19;;;;;;;2.33;2.12;;;;;;;19.65;61.40;99085.92;1761649;81;21138;-82
2022/08/01 01:59:46;;;;;;;8.15;2.02;;;;;;;19.64;61.46;99081.54;1725969;83;21494;-81
2022/08/01 02:02:13;;;;;;;6.65;2.08;;;;;;;19.61;61.56;99079.11;1725786;83;20981;-80
2022/08/01 02:04:44;;;;;;;5.00;2.10;;;;;;;19.60;61.64;99078.77;1726146;82;21072;-79
2022/08/01 02:07:16;;;;;;;2.52;1.87;;;;;;;19.59;61.71;99085.06;1721938;82;21060;-82
2022/08/01 02:09:43;;;;;;;5.53;1.95;;;;;;;19.58;61.86;99084.69;1698231;83;21546;-80
2022/08/01 02:12:12;;;;;;;2.75;2.05;;;;;;;19.55;61.88;99078.28;1699897;83;21592;-81
2022/08/01 02:14:42;;;;;;;9.13;2.02;;;;;;;19.54;61.95;99080.57;1699505;84;21533;-81
2022/08/01 02:17:10;;;;;;;5.12;2.10;;;;;;;19.53;61.93;99080.20;1699962;84;21090;-82
2022/08/01 02:19:37;;;;;;;4.95;2.33;;;;;;;19.52;62.38;99073.19;1699751;84;21129;-76
2022/08/01 02:22:21;;;;;;;4.37;2.37;;;;;;;19.50;62.36;99079.10;1699936;84;21026;-82
2022/08/01 02:25:14;;;;;;;4.67;2.33;;;;;;;19.48;62.64;99079.25;1699713;84;22157;-81
2022/08/01 02:27:45;;;;;;;6.95;2.20;;;;;;;19.47;62.75;99074.03;1682674;84;21090;-83
2022/08/01 02:30:13;;;;;;;7.50;2.30;;;;;;;19.45;62.93;99076.81;1699042;84;21081;-80
2022/08/01 02:32:55;;;;;;;4.70;2.05;;;;;;;19.41;63.07;99075.34;1699779;84;21656;-82
2022/08/01 02:35:52;;;;;;;5.83;2.10;;;;;;;19.37;63.19;99071.23;1699705;84;21039;-82
2022/08/01 02:38:20;;;;;;;6.33;1.92;;;;;;;19.34;63.06;99073.29;1708895;83;21102;-79
2022/08/01 02:40:47;;;;;;;10.35;3.25;;;;;;;19.32;63.25;99061.41;1674352;85;21116;-83
2022/08/01 02:43:18;;;;;;;10.53;2.55;;;;;;;19.30;63.37;99064.19;1709235;83;21201;-83
2022/08/01 02:45:49;;;;;;;3.40;1.85;;;;;;;19.28;63.51;99063.93;1674047;85;21084;-82
2022/08/01 02:48:16;;;;;;;6.10;2.30;;;;;;;19.27;63.35;99060.92;1709354;83;21067;-81
2022/08/01 02:50:45;;;;;;;5.08;2.00;;;;;;;19.29;63.42;99061.64;1709194;83;21781;-83
2022/08/01 02:53:13;;;;;;;3.40;1.72;;;;;;;19.28;63.35;99062.59;1674493;85;21187;-82
2022/08/01 02:55:40;;;;;;;3.72;1.77;;;;;;;19.28;63.20;99062.13;1708567;83;21130;-77
2022/08/01 02:58:07;;;;;;;4.10;2.40;;;;;;;19.28;63.28;99052.80;1708848;83;21051;-81
2022/08/01 03:00:34;;;;;;;7.25;1.80;;;;;;;19.30;63.17;99052.19;1708944;83;21079;-82
2022/08/01 03:03:01;;;;;;;3.27;2.00;;;;;;;19.30;63.04;99064.19;1674312;85;21151;-83
2022/08/01 03:05:27;;;;;;;7.62;2.58;;;;;;;19.29;63.13;99058.97;1708870;83;21169;-83
2022/08/01 03:07:55;;;;;;;4.08;1.82;;;;;;;19.27;63.02;99063.09;1709233;83;21063;-80
2022/08/01 03:10:22;;;;;;;2.00;1.77;;;;;;;19.27;63.10;99066.25;1708827;83;21028;-83
2022/08/01 03:12:48;;;;;;;5.55;2.05;;;;;;;19.26;63.06;99057.88;1709076;83;21080;-84
2022/08/01 03:15:15;;;;;;;3.87;1.77;;;;;;;19.26;62.83;99062.71;1708565;83;21135;-83
2022/08/01 03:17:42;;;;;;;4.67;1.67;;;;;;;19.27;62.73;99066.25;1708902;83;21126;-81
2022/08/01 03:20:10;;;;;;;10.20;2.10;;;;;;;19.26;62.59;99068.05;1708952;83;21190;-84
2022/08/01 03:22:36;;;;;;;7.40;2.08;;;;;;;19.27;62.29;99070.25;1674669;85;21119;-84
2022/08/01 03:25:04;;;;;;;7.47;2.05;;;;;;;19.26;61.98;99080.05;1708819;83;21543;-82
2022/08/01 03:27:30;;;;;;;7.83;1.77;;;;;;;19.26;61.77;99080.05;1709035;83;21762;-82
2022/08/01 03:29:57;;;;;;;5.65;2.67;;;;;;;19.29;61.58;99078.98;1709058;83;21131;-82
2022/08/01 03:32:23;;;;;;;5.33;2.40;;;;;;;19.30;61.44;99078.86;1708964;83;21114;-84
2022/08/01 03:34:50;;;;;;;6.75;2.42;;;;;;;19.34;61.27;99073.29;1674750;85;21187;-83
2022/08/01 03:37:44;;;;;;;5.87;2.00;;;;;;;19.36;60.94;99071.34;1720005;82;21047;-84
2022/08/01 03:40:36;;;;;;;5.33;1.98;;;;;;;19.37;60.88;99073.06;1730490;82;21118;-82
2022/08/01 03:43:07;;;;;;;6.12;2.22;;;;;;;19.37;60.75;99077.06;1730453;82;21072;-83
2022/08/01 03:45:41;;;;;;;4.90;1.90;;;;;;;19.37;60.63;99071.72;1730762;82;21052;-80
2022/08/01 03:48:14;;;;;;;3.12;1.62;;;;;;;19.36;60.23;99065.52;1730890;82;21146;-83
2022/08/01 03:50:45;;;;;;;3.42;2.08;;;;;;;19.38;60.16;99066.73;1731155;82;20993;-81
2022/08/01 03:53:11;;;;;;;3.72;1.87;;;;;;;19.37;60.03;99068.56;1730522;82;21254;-82
2022/08/01 03:55:39;;;;;;;4.03;1.60;;;;;;;19.38;59.90;99069.40;1730663;82;21032;-83
2022/08/01 03:58:05;;;;;;;9.60;2.10;;;;;;;19.40;59.72;99068.33;1730005;82;21146;-81
2022/08/01 04:00:32;;;;;;;3.42;1.77;;;;;;;19.40;59.55;99068.79;1726100;82;21007;-80
2022/08/01 04:02:58;;;;;;;4.58;1.80;;;;;;;19.41;59.61;99070.00;1726022;83;21082;-83
2022/08/01 04:05:25;;;;;;;8.18;1.72;;;;;;;19.45;59.49;99069.27;1725584;83;21128;-82
2022/08/01 04:07:55;;;;;;;2.10;1.82;;;;;;;19.44;59.28;99064.44;1725797;83;21048;-81
2022/08/01 04:10:22;;;;;;;7.55;2.40;;;;;;;19.45;59.25;99066.14;1723149;81;21142;-83
2022/08/01 04:12:49;;;;;;;2.37;1.70;;;;;;;19.46;59.20;99064.31;1706004;84;21601;-83
2022/08/01 04:15:16;;;;;;;7.53;1.80;;;;;;;19.46;59.27;99064.31;1706141;83;21059;-83
2022/08/01 04:17:42;;;;;;;5.97;1.90;;;;;;;19.50;59.21;99063.09;1705659;83;21110;-82
2022/08/01 04:20:10;;;;;;;5.45;2.00;;;;;;;19.52;59.22;99066.51;1718603;83;21093;-83
2022/08/01 04:22:37;;;;;;;3.22;1.75;;;;;;;19.55;58.99;99066.27;1705567;83;21117;-82
2022/08/01 04:25:09;;;;;;;4.15;1.72;;;;;;;19.59;58.55;99070.38;1718680;83;21094;-83
2022/08/01 04:27:38;;;;;;;4.45;1.75;;;;;;;19.63;58.39;99070.98;1718573;82;21537;-82
2022/08/01 04:30:06;;;;;;;4.12;1.72;;;;;;;19.68;58.13;99067.47;1705461;83;21416;-82
2022/08/01 04:32:35;;;;;;;4.20;1.80;;;;;;;19.73;57.88;99063.94;1718206;83;21616;-82
2022/08/01 04:35:07;;;;;;;5.75;2.02;;;;;;;19.80;57.93;99056.32;1718280;83;21125;-81
2022/08/01 04:37:36;;;;;;;5.67;1.95;;;;;;;19.85;57.60;99060.34;1730366;81;21071;-82
2022/08/01 04:40:06;;;;;;;5.10;1.72;;;;;;;19.90;57.55;99061.28;1743650;82;21067;-82
2022/08/01 04:42:33;;;;;;;3.20;1.67;;;;;;;19.96;57.20;99068.81;1743574;82;21142;-84
2022/08/01 04:44:59;;;;;;;13.20;1.67;;;;;;;20.01;57.10;99061.77;1743692;82;21131;-80
2022/08/01 04:47:26;;;;;;;2.47;1.37;;;;;;;20.07;56.70;99059.07;1743637;82;21147;-82
2022/08/01 04:49:53;;;;;;;9.03;1.70;;;;;;;20.13;56.45;99054.58;1743659;82;21047;-80
2022/08/01 04:52:19;;;;;;;8.20;1.92;;;;;;;20.18;56.18;99053.72;1743590;82;21502;-81
2022/08/01 04:54:46;;;;;;;5.85;1.72;;;;;;;20.25;56.12;99048.22;1743518;82;21088;-82
2022/08/01 04:57:13;;;;;;;5.70;1.60;;;;;;;20.31;55.74;99051.73;1743907;82;21554;-83
2022/08/01 04:59:42;;;;;;;3.40;1.60;;;;;;;20.38;55.69;99052.91;1743746;82;21075;-83
2022/08/01 05:02:15;;;;;;;3.87;1.57;;;;;;;20.46;55.67;99048.75;1743822;82;21078;-83
2022/08/01 05:04:42;;;;;;;8.08;1.52;;;;;;;20.51;54.91;99049.21;1743581;80;21490;-82
2022/08/01 05:07:09;;;;;;;4.15;1.62;;;;;;;20.56;54.96;99048.34;1743850;82;21855;-83
2022/08/01 05:09:36;;;;;;;8.25;1.92;;;;;;;20.62;54.99;99053.17;1743575;82;21640;-83
2022/08/01 05:12:05;;;;;;;4.28;1.57;;;;;;;20.64;54.58;99051.75;1743617;82;21078;-85
2022/08/01 05:14:32;;;;;;;1.95;1.50;;;;;;;20.67;54.13;99045.65;1743890;82;21044;-80
2022/08/01 05:17:02;;;;;;;2.85;1.50;;;;;;;20.67;53.67;99051.00;1743641;82;21051;-82
2022/08/01 05:19:33;;;;;;;4.65;1.20;;;;;;;20.68;53.05;99047.36;1744050;82;21810;-84
2022/08/01 05:22:01;;;;;;;5.42;1.70;;;;;;;20.70;53.24;99042.73;1743671;82;21042;-82
2022/08/01 05:24:28;;;;;;;2.20;1.35;;;;;;;20.73;52.71;99045.14;1743854;82;21016;-81
2022/08/01 05:26:57;;;;;;;3.90;1.47;;;;;;;20.76;53.06;99042.22;1743588;82;21000;-79
2022/08/01 05:29:24;;;;;;;2.05;1.70;;;;;;;20.80;53.25;99047.31;1743759;82;21070;-81
2022/08/01 05:31:51;;;;;;;9.30;1.50;;;;;;;20.84;52.92;99043.38;1743426;82;21196;-82
2022/08/01 05:34:18;;;;;;;5.85;1.57;;;;;;;20.90;53.02;99053.58;1744037;82;21035;-82
2022/08/01 05:36:44;;;;;;;1.77;1.02;;;;;;;20.95;53.44;99052.69;1743956;82;21110;-81
2022/08/01 05:39:11;;;;;;;6.95;1.27;;;;;;;21.01;52.99;99050.81;1743867;82;21618;-81
2022/08/01 05:41:37;;;;;;;6.70;1.30;;;;;;;21.06;52.70;99045.91;1743986;82;21031;-82
2022/08/01 05:44:04;;;;;;;4.08;1.77;;;;;;;21.12;52.59;99050.74;1743594;82;21127;-83
2022/08/01 05:46:31;;;;;;;8.65;1.55;;;;;;;21.19;52.48;99052.91;1743792;82;21138;-83
2022/08/01 05:48:58;;;;;;;3.45;1.42;;;;;;;21.23;52.13;99045.83;1743953;82;21554;-81
2022/08/01 05:51:25;;;;;;;6.45;1.50;;;;;;;21.29;52.10;99048.45;1743901;82;21069;-80
2022/08/01 05:53:52;;;;;;;3.08;1.27;;;;;;;21.35;52.44;99051.94;1743845;82;20991;-80
2022/08/01 05:56:19;;;;;;;2.27;1.50;;;;;;;21.42;52.71;99053.09;1743869;82;21107;-81
2022/08/01 05:58:45;;;;;;;10.58;1.70;;;;;;;21.49;52.37;99058.79;1744191;82;21059;-83
2022/08/01 06:01:11;;;;;;;2.05;1.40;;;;;;;21.56;51.93;99059.10;1743758;82;21606;-82
2022/08/01 06:03:38;;;;;;;3.67;1.47;;;;;;;21.63;51.49;99065.10;1750124;81;21575;-81
2022/08/01 06:06:05;;;;;;;3.22;1.40;;;;;;;21.68;51.69;99056.67;1753684;81;21046;-81
2022/08/01 06:08:31;;;;;;;3.98;1.45;;;;;;;21.71;51.40;99055.91;1754169;81;21164;-81
2022/08/01 06:10:58;;;;;;;5.60;1.57;;;;;;;21.77;51.80;99062.57;1742858;81;20985;-82
2022/08/01 06:13:24;;;;;;;2.12;1.57;;;;;;;21.81;51.55;99054.61;1738904;82;21605;-82
2022/08/01 06:15:51;;;;;;;15.00;1.85;;;;;;;21.86;51.62;99051.02;1739011;82;21740;-83
2022/08/01 06:18:18;;;;;;;1.98;1.37;;;;;;;21.89;51.64;99041.38;1739330;82;21138;-82
2022/08/01 06:20:44;;;;;;;8.35;1.70;;;;;;;21.97;52.01;99047.87;1739546;82;21071;-81
2022/08/01 06:23:11;;;;;;;3.42;1.70;;;;;;;22.04;51.93;99049.01;1739233;82;21012;-81
2022/08/01 06:25:37;;;;;;;9.05;1.82;;;;;;;22.13;51.22;99042.84;1739457;82;21048;-80
2022/08/01 06:28:04;;;;;;;4.60;1.52;;;;;;;22.21;51.32;99036.80;1739075;81;21491;-81
2022/08/01 06:30:31;;;;;;;7.33;1.60;;;;;;;22.30;51.12;99036.48;1739017;82;21491;-83
2022/08/01 06:32:59;;;;;;;7.22;1.62;;;;;;;22.38;51.57;99034.79;1738975;82;21126;-83
2022/08/01 06:35:29;;;;;;;5.50;1.47;;;;;;;22.49;51.53;99036.47;1739005;82;21606;-81
2022/08/01 06:37:56;;;;;;;6.10;1.95;;;;;;;22.59;51.47;99032.45;1735748;82;21494;-79
2022/08/01 06:40:23;;;;;;;3.40;1.30;;;;;;;22.67;51.25;99023.71;1727688;83;21585;-81
2022/08/01 06:42:49;;;;;;;7.17;1.45;;;;;;;22.75;50.78;99020.66;1728111;83;21082;-82
2022/08/01 06:45:16;;;;;;;4.40;1.50;;;;;;;22.81;50.58;99019.23;1727766;83;21380;-81
2022/08/01 06:47:44;;;;;;;6.05;1.65;;;;;;;22.88;50.86;99020.84;1727942;83;21486;-83
2022/08/01 06:50:11;;;;;;;4.40;1.70;;;;;;;22.93;50.09;99016.76;1727689;83;21067;-81
2022/08/01 06:52:37;;;;;;;2.30;1.82;;;;;;;22.97;50.29;99014.12;1727806;83;21617;-81
2022/08/01 06:55:05;;;;;;;4.42;1.80;;;;;;;23.04;50.26;99004.16;1727788;83;21023;-81
2022/08/01 06:57:32;;;;;;;6.83;1.57;;;;;;;23.13;50.72;99003.30;1727781;83;21772;-83
2022/08/01 07:00:10;;;;;;;8.30;1.85;;;;;;;23.21;50.89;99006.11;1727630;83;21134;-82
2022/08/01 07:02:37;;;;;;;8.40;1.98;;;;;;;23.30;50.78;99009.74;1728220;83;21058;-80
2022/08/01 07:05:04;;;;;;;5.80;1.95;;;;;;;23.42;50.23;99010.41;1727747;83;21121;-82
2022/08/01 07:07:31;;;;;;;6.25;1.82;;;;;;;23.51;49.89;99009.53;1727793;83;21153;-83
2022/08/01 07:09:58;;;;;;;9.73;1.70;;;;;;;23.59;50.07;99004.73;1727675;83;21124;-83
2022/08/01 07:12:24;;;;;;;11.95;2.05;;;;;;;23.65;49.93;99002.30;1727757;83;20983;-81
2022/08/01 07:14:51;;;;;;;3.80;1.67;;;;;;;23.70;49.38;99008.10;1727755;83;21034;-79
2022/08/01 07:17:20;;;;;;;10.82;1.70;;;;;;;23.77;49.34;99007.01;1727805;83;21098;-81
2022/08/01 07:19:46;;;;;;;8.33;2.17;;;;;;;23.84;49.34;99007.25;1727718;83;21545;-82
2022/08/01 07:22:13;;;;;;;7.08;1.57;;;;;;;23.89;48.84;99000.95;1728344;83;21105;-82
2022/08/01 07:24:41;;;;;;;5.20;1.77;;;;;;;23.97;48.81;99002.36;1727780;83;20987;-81
2022/08/01 07:27:08;;;;;;;5.92;1.65;;;;;;;24.07;48.82;99000.48;1728077;83;21471;-82
2022/08/01 07:29:35;;;;;;;4.75;1.67;;;;;;;24.16;48.68;98997.38;1727839;83;38732;-82
2022/08/01 07:32:01;;;;;;;9.43;1.55;;;;;;;24.27;48.52;98996.28;1727858;83;20991;-83
2022/08/01 07:34:28;;;;;;;1.92;1.65;;;;;;;24.36;47.65;99006.13;1727762;83;21810;-83
2022/08/01 07:36:54;;;;;;;7.22;1.37;;;;;;;24.45;47.77;98995.78;1727709;83;21134;-79
2022/08/01 07:39:21;;;;;;;3.80;1.60;;;;;;;24.53;48.06;99000.88;1720494;81;21090;-81
2022/08/01 07:41:47;;;;;;;4.55;1.67;;;;;;;24.62;48.03;98999.98;1718075;83;21023;-82
2022/08/01 07:44:14;;;;;;;3.85;1.80;;;;;;;24.72;48.01;98996.70;1717861;81;21534;-81
2022/08/01 07:46:40;;;;;;;4.92;1.75;;;;;;;24.81;47.26;98994.91;1717784;83;21133;-82
2022/08/01 07:49:08;;;;;;;16.80;1.50;;;;;;;24.89;46.95;99000.86;1717932;83;21054;-83
2022/08/01 07:51:34;;;;;;;7.72;1.50;;;;;;;24.95;46.14;98993.48;1718220;83;21145;-83
2022/08/01 07:54:01;;;;;;;3.58;1.45;;;;;;;25.02;46.37;98990.52;1718111;83;21099;-82
2022/08/01 07:56:27;;;;;;;5.30;1.40;;;;;;;25.11;46.35;98992.76;1718246;83;21024;-81
2022/08/01 07:58:53;;;;;;;5.67;1.70;;;;;;;25.20;46.13;98995.82;1718060;83;21473;-82
2022/08/01 08:01:20;;;;;;;3.08;1.57;;;;;;;25.29;46.25;98993.56;1718546;81;20988;-81
2022/08/01 08:03:47;;;;;;;4.55;1.50;;;;;;;25.38;46.34;98994.44;1694480;82;21054;-82
2022/08/01 08:06:13;;;;;;;2.05;1.40;;;;;;;25.49;46.35;98987.94;1737936;81;22402;-83
2022/08/01 08:08:40;;;;;;;7.08;1.70;;;;;;;25.59;46.26;98988.14;1739973;82;21110;-83
2022/08/01 08:11:07;;;;;;;3.75;1.50;;;;;;;25.68;45.70;98989.52;1739585;81;21122;-84
2022/08/01 08:13:34;;;;;;;5.87;1.40;;;;;;;25.75;45.20;98993.24;1739990;80;21044;-82
2022/08/01 08:16:00;;;;;;;3.20;1.72;;;;;;;25.80;45.45;98993.59;1738794;80;21063;-81
2022/08/01 08:18:26;;;;;;;3.60;1.50;;;;;;;25.82;45.17;98994.78;1740172;82;20992;-83
2022/08/01 08:20:53;;;;;;;5.60;1.40;;;;;;;25.85;45.73;98999.84;1740068;81;21397;-82
2022/08/01 08:26:04;;;;;;;4.22;1.65;;;;;;;25.99;45.78;98991.17;1740402;81;21087;-82
2022/08/01 08:28:31;;;;;;;6.58;1.87;;;;;;;26.05;45.35;98991.00;1738988;82;21131;-82
2022/08/01 08:30:57;;;;;;;7.80;1.70;;;;;;;26.09;45.49;98978.86;1740148;80;21091;-78
2022/08/01 08:33:24;;;;;;;6.20;1.72;;;;;;;26.17;45.05;98979.39;1740006;81;21075;-82
2022/08/01 08:35:51;;;;;;;2.35;1.55;;;;;;;26.25;45.32;98974.84;1740328;81;22183;-83
2022/08/01 08:38:17;;;;;;;6.47;2.27;;;;;;;26.32;44.75;98975.86;1739237;81;22095;-81
2022/08/01 08:40:43;;;;;;;8.05;1.67;;;;;;;26.42;44.70;98981.61;1734856;82;21111;-84
2022/08/01 08:43:11;;;;;;;9.93;1.90;;;;;;;26.49;44.72;98977.22;1665420;82;21159;-83
2022/08/01 08:45:38;;;;;;;8.43;2.10;;;;;;;26.57;44.68;98973.17;1734827;82;21064;-83
2022/08/01 08:48:06;;;;;;;7.55;2.35;;;;;;;26.68;44.91;98969.34;1734956;82;23020;-83
2022/08/01 08:50:32;;;;;;;4.75;1.35;;;;;;;26.79;44.88;98972.17;1734606;82;21520;-80
2022/08/01 08:52:59;;;;;;;11.22;2.05;;;;;;;26.88;44.45;98974.70;1735035;82;21547;-81
2022/08/01 08:55:26;;;;;;;9.70;2.72;;;;;;;26.99;43.99;98975.34;1734814;82;21346;-83
2022/08/01 08:57:52;;;;;;;3.08;1.80;;;;;;;27.09;44.59;98974.64;1734621;82;21147;-82
2022/08/01 09:00:19;;;;;;;3.75;2.12;;;;;;;27.20;44.19;98976.12;1734953;82;21104;-81
2022/08/01 09:02:46;;;;;;;2.30;1.90;;;;;;;27.27;43.94;98974.44;1734692;82;21060;-83
2022/08/01 09:05:13;;;;;;;3.83;2.00;;;;;;;27.35;43.44;98969.53;1734835;82;21006;-82
2022/08/01 09:07:39;;;;;;;4.37;2.00;;;;;;;27.41;43.70;98974.23;1734618;82;21053;-82
2022/08/01 09:10:07;;;;;;;11.22;2.00;;;;;;;27.48;43.36;98974.38;1734969;82;21139;-83
2022/08/01 09:12:34;;;;;;;5.00;1.90;;;;;;;27.53;43.18;98974.70;1736584;82;21374;-83
2022/08/01 09:15:01;;;;;;;7.47;2.08;;;;;;;27.59;42.90;98976.70;1734568;82;21128;-83
2022/08/01 09:17:27;;;;;;;9.03;2.08;;;;;;;27.62;42.74;98976.33;1734764;82;21093;-81
2022/08/01 09:19:55;;;;;;;9.45;1.92;;;;;;;27.68;43.13;98971.58;1734831;82;21009;-83
2022/08/01 09:22:23;;;;;;;6.55;2.08;;;;;;;27.74;43.77;98981.69;1734868;82;21096;-82
2022/08/01 09:25:10;;;;;;;6.85;2.00;;;;;;;27.83;43.38;98983.01;1734791;82;21813;-83
2022/08/01 09:27:38;;;;;;;6.03;1.95;;;;;;;27.87;43.20;98978.39;1734676;82;21128;-83
2022/08/01 09:30:13;;;;;;;9.10;1.85;;;;;;;27.93;43.24;98985.84;1734759;82;21651;-81
2022/08/01 09:33:04;;;;;;;3.20;1.98;;;;;;;27.99;43.21;98988.33;1734880;82;21616;-82
2022/08/01 09:35:37;;;;;;;3.70;2.17;;;;;;;28.03;42.51;98988.84;1734638;82;21009;-80
2022/08/01 09:38:21;;;;;;;9.15;2.42;;;;;;;28.11;43.04;98976.09;1734800;82;21638;-83
2022/08/01 09:41:00;;;;;;;7.60;1.98;;;;;;;28.19;42.55;98975.19;1734643;82;21053;-81
2022/08/01 09:43:28;;;;;;;4.53;2.00;;;;;;;28.26;43.54;98970.75;1734631;82;21361;-82
2022/08/01 09:45:55;;;;;;;3.83;2.10;;;;;;;28.34;43.10;98977.95;1734733;82;21021;-80
2022/08/01 09:48:22;;;;;;;3.67;2.12;;;;;;;28.40;43.26;98977.23;1734716;81;21084;-83
2022/08/01 09:50:51;;;;;;;2.87;1.72;;;;;;;28.42;42.34;98980.59;1734821;82;21098;-83
2022/08/01 09:53:18;;;;;;;5.10;1.60;;;;;;;28.41;42.64;98984.34;1734663;82;21587;-84
2022/08/01 09:55:44;;;;;;;7.10;2.10;;;;;;;28.38;43.04;98982.00;1734980;82;22241;-84
2022/08/01 09:58:11;;;;;;;1.95;1.80;;;;;;;28.42;43.05;98979.24;1726964;82;21020;-82
2022/08/01 10:00:38;;;;;;;4.67;1.90;;;;;;;28.50;42.44;98984.59;1726806;83;21076;-83
2022/08/01 10:03:22;;;;;;;4.12;1.60;;;;;;;28.58;41.71;98980.16;1726718;83;21111;-85
2022/08/01 10:05:50;;;;;;;9.25;2.27;;;;;;;28.66;41.62;98984.98;1726547;83;21531;-83
2022/08/01 10:08:17;;;;;;;3.00;1.62;;;;;;;28.70;42.17;98973.30;1726437;83;20997;-80
2022/08/01 10:11:04;;;;;;;2.72;1.70;;;;;;;28.73;41.85;98972.91;1717072;82;21573;-83
2022/08/01 10:13:31;;;;;;;8.65;1.80;;;;;;;28.78;42.33;98973.23;1713391;83;21086;-81
2022/08/01 10:15:57;;;;;;;3.02;1.90;;;;;;;28.88;42.66;98968.39;1713643;83;22072;-82
2022/08/01 10:18:24;;;;;;;6.90;1.87;;;;;;;29.02;42.81;98969.94;1713238;83;21493;-84
2022/08/01 10:20:50;;;;;;;4.20;1.65;;;;;;;29.11;42.42;98966.10;1683995;85;21078;-83
2022/08/01 10:23:16;;;;;;;4.50;1.98;;;;;;;29.13;42.20;98964.04;1684305;85;21074;-83
2022/08/01 10:25:43;;;;;;;3.83;1.87;;;;;;;29.17;42.50;98966.75;1654630;86;21057;-83
2022/08/01 10:28:20;;;;;;;9.33;2.20;;;;;;;29.20;42.53;98969.59;1713404;83;21031;-82
2022/08/01 10:30:44;;;;;;;8.20;2.10;;;;;;;29.23;42.30;98959.21;1712282;83;21154;-83
2022/08/01 10:33:11;;;;;;;3.42;1.80;;;;;;;29.27;42.21;98961.06;1713700;83;21090;-82
2022/08/01 10:35:38;;;;;;;6.72;2.22;;;;;;;29.34;41.71;98962.50;1713449;83;21011;-81
2022/08/01 10:38:05;;;;;;;3.20;1.80;;;;;;;29.40;41.81;98956.31;1713787;83;21032;-83
2022/08/01 10:40:32;;;;;;;7.17;1.92;;;;;;;29.48;42.20;98964.34;1713263;83;21128;-83
2022/08/01 10:42:59;;;;;;;8.08;3.72;;;;;;;29.60;41.83;98957.39;1713404;83;21152;-82
2022/08/01 10:45:26;;;;;;;8.25;3.00;;;;;;;29.72;41.15;98948.78;1713133;83;21084;-82
2022/08/01 10:48:31;;;;;;;5.25;1.90;;;;;;;29.81;41.17;98954.46;1713585;83;21024;-83
2022/08/01 10:51:01;;;;;;;7.65;2.17;;;;;;;29.88;41.35;98951.30;1713601;83;21036;-82
2022/08/01 10:53:28;;;;;;;5.80;1.90;;;;;;;29.90;41.00;98947.88;1713509;83;21174;-83
2022/08/01 10:56:00;;;;;;;3.92;1.87;;;;;;;29.91;40.91;98956.34;1683861;85;21003;-84
2022/08/01 10:58:37;;;;;;;3.65;1.70;;;;;;;29.97;40.60;98950.13;1684539;85;21082;-82
2022/08/01 11:01:35;;;;;;;7.83;2.08;;;;;;;30.08;41.04;98946.61;1653896;86;21147;-82
2022/08/01 11:04:11;;;;;;;5.15;1.67;;;;;;;30.18;40.35;98944.41;1691302;83;21076;-84
2022/08/01 11:06:50;;;;;;;5.12;1.65;;;;;;;30.26;41.02;98938.86;1713359;83;21119;-84
2022/08/01 11:09:26;;;;;;;4.10;1.57;;;;;;;30.37;40.66;98945.12;1713636;83;21051;-83
2022/08/01 11:12:09;;;;;;;4.25;1.82;;;;;;;30.50;39.85;98943.58;1713397;83;21729;-83
2022/08/01 11:15:04;;;;;;;4.20;1.60;;;;;;;30.56;39.78;98940.06;1713580;83;21039;-80
2022/08/01 11:17:50;;;;;;;8.28;1.77;;;;;;;30.64;40.04;98949.42;1713290;83;21122;-83
2022/08/01 11:20:24;;;;;;;9.20;1.70;;;;;;;30.70;40.11;98947.29;1713640;83;21792;-82
2022/08/01 11:23:06;;;;;;;6.92;1.80;;;;;;;30.77;39.56;98937.83;1713433;83;21124;-83
2022/08/01 11:25:45;;;;;;;3.08;1.70;;;;;;;30.81;40.24;98944.53;1713821;83;21140;-82
2022/08/01 11:28:20;;;;;;;6.90;2.10;;;;;;;30.83;39.60;98945.70;1713141;83;21044;-81
2022/08/01 11:30:54;;;;;;;3.75;1.40;;;;;;;30.78;38.57;98949.53;1713600;83;21152;-83
2022/08/01 11:33:46;;;;;;;2.67;1.45;;;;;;;30.67;39.08;98950.39;1713453;83;21128;-79
2022/08/01 11:36:16;;;;;;;5.97;1.87;;;;;;;30.59;38.61;98955.97;1713617;83;21000;-81
2022/08/01 11:38:46;;;;;;;5.20;1.80;;;;;;;30.51;38.72;98957.46;1713311;83;21000;-81
2022/08/01 11:41:27;;;;;;;3.60;1.90;;;;;;;30.46;39.26;98955.85;1713489;83;21127;-83
2022/08/01 11:44:06;;;;;;;1.57;1.40;;;;;;;30.47;39.83;98950.76;1713467;83;21553;-81
2022/08/01 11:47:09;;;;;;;3.02;1.72;;;;;;;30.58;39.20;98952.95;1713862;83;21113;-82
2022/08/01 11:49:44;;;;;;;7.25;1.50;;;;;;;30.70;38.65;98948.64;1713266;83;21008;-81